sensor_id;sensor_type;location;lat;lon;timestamp;temperature;humidity
75357;HTU21D;63946;51.986;5.930;2024-03-17T07:24:16;8.72;68.74
75357;HTU21D;63946;51.986;5.930;2024-03-17T07:26:44;8.77;68.57
75357;HTU21D;63946;51.986;5.930;2024-03-17T07:29:13;8.80;68.52
75357;HTU21D;63946;51.986;5.930;2024-03-17T07:31:44;8.83;68.53
75357;HTU21D;63946;51.986;5.930;2024-03-17T07:34:13;8.85;68.55
75357;HTU21D;63946;51.986;5.930;2024-03-17T07:36:42;8.86;68.49
75357;HTU21D;63946;51.986;5.930;2024-03-17T07:39:10;8.93;68.40
75357;HTU21D;63946;51.986;5.930;2024-03-17T07:41:42;9.05;68.30
75357;HTU21D;63946;51.986;5.930;2024-03-17T07:44:11;9.15;68.11
75357;HTU21D;63946;51.986;5.930;2024-03-17T07:46:40;9.24;67.72
75357;HTU21D;63946;51.986;5.930;2024-03-17T07:49:09;9.32;67.51
75357;HTU21D;63946;51.986;5.930;2024-03-17T07:51:38;9.44;67.35
75357;HTU21D;63946;51.986;5.930;2024-03-17T07:54:06;9.59;67.15
75357;HTU21D;63946;51.986;5.930;2024-03-17T07:56:35;9.67;66.90
75357;HTU21D;63946;51.986;5.930;2024-03-17T07:59:04;9.72;66.81
75357;HTU21D;63946;51.986;5.930;2024-03-17T08:01:38;9.85;66.66
75357;HTU21D;63946;51.986;5.930;2024-03-17T08:04:07;9.96;66.45
75357;HTU21D;63946;51.986;5.930;2024-03-17T08:06:40;10.07;66.31
75357;HTU21D;63946;51.986;5.930;2024-03-17T08:09:10;10.09;66.28
75357;HTU21D;63946;51.986;5.930;2024-03-17T08:11:39;10.11;66.20
75357;HTU21D;63946;51.986;5.930;2024-03-17T08:14:13;10.16;65.91
75357;HTU21D;63946;51.986;5.930;2024-03-17T08:16:42;10.22;65.53
75357;HTU21D;63946;51.986;5.930;2024-03-17T08:19:11;10.27;65.33
75357;HTU21D;63946;51.986;5.930;2024-03-17T08:21:40;10.38;65.01
75357;HTU21D;63946;51.986;5.930;2024-03-17T08:24:08;10.44;64.65
75357;HTU21D;63946;51.986;5.930;2024-03-17T08:26:37;10.49;64.05
75357;HTU21D;63946;51.986;5.930;2024-03-17T08:29:06;10.46;63.77
75357;HTU21D;63946;51.986;5.930;2024-03-17T08:31:35;10.56;63.88
75357;HTU21D;63946;51.986;5.930;2024-03-17T08:34:03;10.67;63.67
75357;HTU21D;63946;51.986;5.930;2024-03-17T08:36:34;10.74;63.26
75357;HTU21D;63946;51.986;5.930;2024-03-17T08:39:02;10.78;63.02
75357;HTU21D;63946;51.986;5.930;2024-03-17T08:41:31;10.87;62.83
75357;HTU21D;63946;51.986;5.930;2024-03-17T08:44:00;10.95;62.50
75357;HTU21D;63946;51.986;5.930;2024-03-17T08:46:29;10.98;62.47
75357;HTU21D;63946;51.986;5.930;2024-03-17T08:48:58;11.05;62.19
75357;HTU21D;63946;51.986;5.930;2024-03-17T08:51:27;11.09;61.98
75357;HTU21D;63946;51.986;5.930;2024-03-17T08:53:58;11.14;61.79
75357;HTU21D;63946;51.986;5.930;2024-03-17T08:56:27;11.18;61.84
75357;HTU21D;63946;51.986;5.930;2024-03-17T08:58:56;11.24;61.89
75357;HTU21D;63946;51.986;5.930;2024-03-17T09:01:24;11.31;61.82
75357;HTU21D;63946;51.986;5.930;2024-03-17T09:03:53;11.34;61.67
75357;HTU21D;63946;51.986;5.930;2024-03-17T09:06:26;11.39;61.60
75357;HTU21D;63946;51.986;5.930;2024-03-17T09:08:55;11.42;61.47
75357;HTU21D;63946;51.986;5.930;2024-03-17T09:11:24;11.43;61.18
75357;HTU21D;63946;51.986;5.930;2024-03-17T09:13:53;11.41;60.82
75357;HTU21D;63946;51.986;5.930;2024-03-17T09:16:24;11.39;60.66
75357;HTU21D;63946;51.986;5.930;2024-03-17T09:18:51;11.36;60.33
75357;HTU21D;63946;51.986;5.930;2024-03-17T09:21:20;11.31;60.23
75357;HTU21D;63946;51.986;5.930;2024-03-17T09:23:49;11.33;60.29
75357;HTU21D;63946;51.986;5.930;2024-03-17T09:26:18;11.38;60.35
75357;HTU21D;63946;51.986;5.930;2024-03-17T09:28:46;11.40;60.25
75357;HTU21D;63946;51.986;5.930;2024-03-17T09:31:15;11.45;60.13
75357;HTU21D;63946;51.986;5.930;2024-03-17T09:33:44;11.46;60.02
75357;HTU21D;63946;51.986;5.930;2024-03-17T09:36:13;11.54;60.16
75357;HTU21D;63946;51.986;5.930;2024-03-17T09:38:41;11.55;60.31
75357;HTU21D;63946;51.986;5.930;2024-03-17T09:41:20;11.54;60.36
75357;HTU21D;63946;51.986;5.930;2024-03-17T09:43:53;11.53;60.53
75357;HTU21D;63946;51.986;5.930;2024-03-17T09:46:26;11.54;60.57
75357;HTU21D;63946;51.986;5.930;2024-03-17T09:48:55;11.55;60.64
75357;HTU21D;63946;51.986;5.930;2024-03-17T09:51:25;11.59;60.76
75357;HTU21D;63946;51.986;5.930;2024-03-17T09:53:54;11.60;60.25
75357;HTU21D;63946;51.986;5.930;2024-03-17T09:56:23;11.55;60.09
75357;HTU21D;63946;51.986;5.930;2024-03-17T09:58:52;11.58;60.25
75357;HTU21D;63946;51.986;5.930;2024-03-17T10:01:23;11.63;60.07
75357;HTU21D;63946;51.986;5.930;2024-03-17T10:03:53;11.67;60.06
75357;HTU21D;63946;51.986;5.930;2024-03-17T10:06:25;11.71;59.77
75357;HTU21D;63946;51.986;5.930;2024-03-17T10:08:59;11.75;59.93
75357;HTU21D;63946;51.986;5.930;2024-03-17T10:11:34;11.85;60.13
75357;HTU21D;63946;51.986;5.930;2024-03-17T10:14:05;11.96;60.12
75357;HTU21D;63946;51.986;5.930;2024-03-17T10:16:36;12.06;60.06
75357;HTU21D;63946;51.986;5.930;2024-03-17T10:19:14;12.13;60.30
75357;HTU21D;63946;51.986;5.930;2024-03-17T10:21:44;12.18;60.22
75357;HTU21D;63946;51.986;5.930;2024-03-17T10:24:24;12.21;59.60
75357;HTU21D;63946;51.986;5.930;2024-03-17T10:26:56;12.25;59.62
75357;HTU21D;63946;51.986;5.930;2024-03-17T10:29:30;12.35;59.68
75357;HTU21D;63946;51.986;5.930;2024-03-17T10:32:12;12.46;59.48
75357;HTU21D;63946;51.986;5.930;2024-03-17T10:34:42;12.58;59.28
75357;HTU21D;63946;51.986;5.930;2024-03-17T10:37:15;12.69;59.08
75357;HTU21D;63946;51.986;5.930;2024-03-17T10:39:46;12.78;58.96
75357;HTU21D;63946;51.986;5.930;2024-03-17T10:42:24;12.81;58.77
75357;HTU21D;63946;51.986;5.930;2024-03-17T10:44:54;12.80;58.45
75357;HTU21D;63946;51.986;5.930;2024-03-17T10:47:23;12.80;58.60
75357;HTU21D;63946;51.986;5.930;2024-03-17T10:49:54;12.87;58.75
75357;HTU21D;63946;51.986;5.930;2024-03-17T10:52:24;12.93;58.67
75357;HTU21D;63946;51.986;5.930;2024-03-17T10:54:55;12.94;58.53
75357;HTU21D;63946;51.986;5.930;2024-03-17T10:59:53;13.04;58.54
75357;HTU21D;63946;51.986;5.930;2024-03-17T11:02:26;13.08;58.66
75357;HTU21D;63946;51.986;5.930;2024-03-17T11:05:05;13.05;58.48
75357;HTU21D;63946;51.986;5.930;2024-03-17T11:07:35;12.96;58.39
75357;HTU21D;63946;51.986;5.930;2024-03-17T11:10:09;12.97;58.72
75357;HTU21D;63946;51.986;5.930;2024-03-17T11:20:27;13.02;58.75
75357;HTU21D;63946;51.986;5.930;2024-03-17T11:23:00;13.03;58.85
75357;HTU21D;63946;51.986;5.930;2024-03-17T11:28:00;12.94;59.13
75357;HTU21D;63946;51.986;5.930;2024-03-17T11:39:10;12.91;59.00
75357;HTU21D;63946;51.986;5.930;2024-03-17T11:41:44;12.90;59.15
75357;HTU21D;63946;51.986;5.930;2024-03-17T11:44:13;12.91;59.12
75357;HTU21D;63946;51.986;5.930;2024-03-17T11:49:20;12.93;58.86
75357;HTU21D;63946;51.986;5.930;2024-03-17T11:51:50;12.94;58.80
75357;HTU21D;63946;51.986;5.930;2024-03-17T11:54:18;12.97;58.70
75357;HTU21D;63946;51.986;5.930;2024-03-17T11:56:51;13.02;58.68
75357;HTU21D;63946;51.986;5.930;2024-03-17T11:59:18;13.06;58.57
75357;HTU21D;63946;51.986;5.930;2024-03-17T12:01:49;13.08;58.69
75357;HTU21D;63946;51.986;5.930;2024-03-17T12:04:18;13.06;58.80
75357;HTU21D;63946;51.986;5.930;2024-03-17T12:06:56;13.10;58.83
75357;HTU21D;63946;51.986;5.930;2024-03-17T12:09:27;13.14;58.83
75357;HTU21D;63946;51.986;5.930;2024-03-17T12:12:09;13.12;58.64
75357;HTU21D;63946;51.986;5.930;2024-03-17T12:14:36;13.11;58.75
75357;HTU21D;63946;51.986;5.930;2024-03-17T12:17:10;13.07;58.47
75357;HTU21D;63946;51.986;5.930;2024-03-17T12:19:40;13.00;58.35
75357;HTU21D;63946;51.986;5.930;2024-03-17T12:22:08;12.96;58.61
75357;HTU21D;63946;51.986;5.930;2024-03-17T12:24:36;12.91;58.75
75357;HTU21D;63946;51.986;5.930;2024-03-17T12:27:06;12.94;58.74
75357;HTU21D;63946;51.986;5.930;2024-03-17T12:29:36;12.91;58.62
75357;HTU21D;63946;51.986;5.930;2024-03-17T12:32:05;12.94;58.74
75357;HTU21D;63946;51.986;5.930;2024-03-17T12:34:34;13.02;58.91
75357;HTU21D;63946;51.986;5.930;2024-03-17T12:37:01;13.06;58.52
75357;HTU21D;63946;51.986;5.930;2024-03-17T12:39:32;13.07;58.15
75357;HTU21D;63946;51.986;5.930;2024-03-17T12:42:15;13.12;58.09
75357;HTU21D;63946;51.986;5.930;2024-03-17T12:44:54;13.19;58.27
75357;HTU21D;63946;51.986;5.930;2024-03-17T12:47:22;13.25;58.25
75357;HTU21D;63946;51.986;5.930;2024-03-17T12:49:56;13.26;57.84
75357;HTU21D;63946;51.986;5.930;2024-03-17T12:52:23;13.25;58.05
75357;HTU21D;63946;51.986;5.930;2024-03-17T12:55:02;13.27;58.47
75357;HTU21D;63946;51.986;5.930;2024-03-17T12:57:45;13.32;58.14
75357;HTU21D;63946;51.986;5.930;2024-03-17T13:00:26;13.31;57.73
75357;HTU21D;63946;51.986;5.930;2024-03-17T13:03:02;13.31;58.00
75357;HTU21D;63946;51.986;5.930;2024-03-17T13:05:35;13.36;57.48
75357;HTU21D;63946;51.986;5.930;2024-03-17T13:08:04;13.30;57.47
75357;HTU21D;63946;51.986;5.930;2024-03-17T13:10:33;13.29;58.01
75357;HTU21D;63946;51.986;5.930;2024-03-17T13:13:03;13.33;58.03
75357;HTU21D;63946;51.986;5.930;2024-03-17T13:15:33;13.30;57.69
75357;HTU21D;63946;51.986;5.930;2024-03-17T13:18:03;13.33;58.14
75357;HTU21D;63946;51.986;5.930;2024-03-17T13:20:32;13.35;58.20
75357;HTU21D;63946;51.986;5.930;2024-03-17T13:23:01;13.36;58.09
75357;HTU21D;63946;51.986;5.930;2024-03-17T13:25:30;13.38;58.16
75357;HTU21D;63946;51.986;5.930;2024-03-17T13:28:00;13.38;58.23
75357;HTU21D;63946;51.986;5.930;2024-03-17T13:30:30;13.37;58.22
75357;HTU21D;63946;51.986;5.930;2024-03-17T13:33:03;13.36;58.18
75357;HTU21D;63946;51.986;5.930;2024-03-17T13:35:35;13.38;58.39
75357;HTU21D;63946;51.986;5.930;2024-03-17T13:38:06;13.35;57.98
75357;HTU21D;63946;51.986;5.930;2024-03-17T13:40:37;13.27;57.95
75357;HTU21D;63946;51.986;5.930;2024-03-17T13:43:07;13.27;57.87
75357;HTU21D;63946;51.986;5.930;2024-03-17T13:45:41;13.25;58.03
75357;HTU21D;63946;51.986;5.930;2024-03-17T13:48:13;13.29;58.35
75357;HTU21D;63946;51.986;5.930;2024-03-17T13:50:42;13.33;58.38
75357;HTU21D;63946;51.986;5.930;2024-03-17T13:53:13;13.38;58.59
75357;HTU21D;63946;51.986;5.930;2024-03-17T13:55:42;13.41;58.45
75357;HTU21D;63946;51.986;5.930;2024-03-17T13:58:12;13.39;58.48
75357;HTU21D;63946;51.986;5.930;2024-03-17T14:00:40;13.37;58.62
75357;HTU21D;63946;51.986;5.930;2024-03-17T14:03:09;13.36;58.73
75357;HTU21D;63946;51.986;5.930;2024-03-17T14:05:38;13.35;58.94
75357;HTU21D;63946;51.986;5.930;2024-03-17T14:08:07;13.38;59.03
75357;HTU21D;63946;51.986;5.930;2024-03-17T14:10:35;13.36;59.08
75357;HTU21D;63946;51.986;5.930;2024-03-17T14:13:04;13.37;59.19
75357;HTU21D;63946;51.986;5.930;2024-03-17T14:15:33;13.41;59.24
75357;HTU21D;63946;51.986;5.930;2024-03-17T14:18:02;13.43;59.35
75357;HTU21D;63946;51.986;5.930;2024-03-17T14:20:32;13.41;59.23
75357;HTU21D;63946;51.986;5.930;2024-03-17T14:23:03;13.39;59.24
75357;HTU21D;63946;51.986;5.930;2024-03-17T14:25:31;13.36;59.10
75357;HTU21D;63946;51.986;5.930;2024-03-17T14:28:00;13.37;59.15
75357;HTU21D;63946;51.986;5.930;2024-03-17T14:30:29;13.41;59.37
75357;HTU21D;63946;51.986;5.930;2024-03-17T14:32:59;13.41;59.20
75357;HTU21D;63946;51.986;5.930;2024-03-17T14:35:32;13.39;59.17
75357;HTU21D;63946;51.986;5.930;2024-03-17T14:38:02;13.40;59.22
75357;HTU21D;63946;51.986;5.930;2024-03-17T14:40:31;13.43;59.11
75357;HTU21D;63946;51.986;5.930;2024-03-17T14:42:59;13.41;58.84
75357;HTU21D;63946;51.986;5.930;2024-03-17T14:45:29;13.44;59.02
75357;HTU21D;63946;51.986;5.930;2024-03-17T14:47:57;13.47;58.87
75357;HTU21D;63946;51.986;5.930;2024-03-17T14:50:26;13.50;58.92
75357;HTU21D;63946;51.986;5.930;2024-03-17T14:52:55;13.55;58.73
75357;HTU21D;63946;51.986;5.930;2024-03-17T14:55:23;13.60;58.84
75357;HTU21D;63946;51.986;5.930;2024-03-17T14:57:52;13.68;58.77
75357;HTU21D;63946;51.986;5.930;2024-03-17T15:00:21;13.74;58.93
75357;HTU21D;63946;51.986;5.930;2024-03-17T15:02:51;13.77;58.82
75357;HTU21D;63946;51.986;5.930;2024-03-17T15:05:20;13.82;58.75
75357;HTU21D;63946;51.986;5.930;2024-03-17T15:07:50;13.88;58.56
75357;HTU21D;63946;51.986;5.930;2024-03-17T15:10:19;13.91;58.52
75357;HTU21D;63946;51.986;5.930;2024-03-17T15:12:49;13.91;58.31
75357;HTU21D;63946;51.986;5.930;2024-03-17T15:15:19;13.88;58.31
75357;HTU21D;63946;51.986;5.930;2024-03-17T15:17:48;13.89;58.38
75357;HTU21D;63946;51.986;5.930;2024-03-17T15:20:17;13.91;58.43
75357;HTU21D;63946;51.986;5.930;2024-03-17T15:22:48;13.95;58.48
75357;HTU21D;63946;51.986;5.930;2024-03-17T15:25:18;13.92;58.31
75357;HTU21D;63946;51.986;5.930;2024-03-17T15:27:50;13.90;58.35
75357;HTU21D;63946;51.986;5.930;2024-03-17T15:30:18;13.89;58.49
75357;HTU21D;63946;51.986;5.930;2024-03-17T15:32:48;13.86;58.65
75357;HTU21D;63946;51.986;5.930;2024-03-17T15:35:21;13.85;58.74
75357;HTU21D;63946;51.986;5.930;2024-03-17T15:37:49;13.82;58.45
75357;HTU21D;63946;51.986;5.930;2024-03-17T15:40:18;13.80;58.19
75357;HTU21D;63946;51.986;5.930;2024-03-17T15:42:47;13.81;58.29
75357;HTU21D;63946;51.986;5.930;2024-03-17T15:45:17;13.82;58.31
75357;HTU21D;63946;51.986;5.930;2024-03-17T15:47:48;13.88;58.38
75357;HTU21D;63946;51.986;5.930;2024-03-17T15:50:17;13.89;58.51
75357;HTU21D;63946;51.986;5.930;2024-03-17T15:52:45;13.88;58.35
75357;HTU21D;63946;51.986;5.930;2024-03-17T15:55:14;13.88;58.38
75357;HTU21D;63946;51.986;5.930;2024-03-17T15:57:43;13.88;58.46
75357;HTU21D;63946;51.986;5.930;2024-03-17T16:00:12;13.86;58.56
75357;HTU21D;63946;51.986;5.930;2024-03-17T16:02:44;13.82;58.30
75357;HTU21D;63946;51.986;5.930;2024-03-17T16:05:16;13.76;58.58
75357;HTU21D;63946;51.986;5.930;2024-03-17T16:07:45;13.75;58.78
75357;HTU21D;63946;51.986;5.930;2024-03-17T16:10:18;13.74;58.70
75357;HTU21D;63946;51.986;5.930;2024-03-17T16:12:47;13.70;58.65
75357;HTU21D;63946;51.986;5.930;2024-03-17T16:15:17;13.69;58.82
75357;HTU21D;63946;51.986;5.930;2024-03-17T16:17:46;13.68;59.06
75357;HTU21D;63946;51.986;5.930;2024-03-17T16:20:36;13.70;59.11
75357;HTU21D;63946;51.986;5.930;2024-03-17T16:23:11;13.69;59.28
75357;HTU21D;63946;51.986;5.930;2024-03-17T16:25:39;13.69;59.26
75357;HTU21D;63946;51.986;5.930;2024-03-17T16:28:09;13.68;59.49
75357;HTU21D;63946;51.986;5.930;2024-03-17T16:30:38;13.65;59.47
75357;HTU21D;63946;51.986;5.930;2024-03-17T16:33:07;13.62;59.41
75357;HTU21D;63946;51.986;5.930;2024-03-17T16:35:38;13.59;59.43
75357;HTU21D;63946;51.986;5.930;2024-03-17T16:38:11;13.55;59.55
75357;HTU21D;63946;51.986;5.930;2024-03-17T16:40:43;13.53;59.45
75357;HTU21D;63946;51.986;5.930;2024-03-17T16:43:25;13.52;59.61
75357;HTU21D;63946;51.986;5.930;2024-03-17T16:46:03;13.49;59.83
75357;HTU21D;63946;51.986;5.930;2024-03-17T16:48:36;13.46;60.04
75357;HTU21D;63946;51.986;5.930;2024-03-17T16:51:05;13.43;60.32
75357;HTU21D;63946;51.986;5.930;2024-03-17T16:53:33;13.40;60.58
75357;HTU21D;63946;51.986;5.930;2024-03-17T16:56:02;13.38;60.58
75357;HTU21D;63946;51.986;5.930;2024-03-17T16:58:32;13.37;60.70
75357;HTU21D;63946;51.986;5.930;2024-03-17T17:01:00;13.35;60.99
75357;HTU21D;63946;51.986;5.930;2024-03-17T17:03:32;13.32;61.27
75357;HTU21D;63946;51.986;5.930;2024-03-17T17:06:03;13.29;61.31
75357;HTU21D;63946;51.986;5.930;2024-03-17T17:08:32;13.25;61.44
75357;HTU21D;63946;51.986;5.930;2024-03-17T17:11:01;13.23;61.40
75357;HTU21D;63946;51.986;5.930;2024-03-17T17:13:30;13.20;61.65
75357;HTU21D;63946;51.986;5.930;2024-03-17T17:15:59;13.19;61.81
75357;HTU21D;63946;51.986;5.930;2024-03-17T17:18:54;13.18;61.90
75357;HTU21D;63946;51.986;5.930;2024-03-17T17:21:26;13.15;62.34
75357;HTU21D;63946;51.986;5.930;2024-03-17T17:23:56;13.12;62.65
75357;HTU21D;63946;51.986;5.930;2024-03-17T17:26:26;13.08;62.99
75357;HTU21D;63946;51.986;5.930;2024-03-17T17:28:59;13.08;63.11
75357;HTU21D;63946;51.986;5.930;2024-03-17T17:31:29;13.05;63.08
75357;HTU21D;63946;51.986;5.930;2024-03-17T17:34:01;13.03;62.99
75357;HTU21D;63946;51.986;5.930;2024-03-17T17:36:29;13.02;63.23
75357;HTU21D;63946;51.986;5.930;2024-03-17T17:38:59;13.00;63.30
75357;HTU21D;63946;51.986;5.930;2024-03-17T17:41:28;12.97;63.52
75357;HTU21D;63946;51.986;5.930;2024-03-17T17:43:59;12.94;63.82
75357;HTU21D;63946;51.986;5.930;2024-03-17T17:46:29;12.90;64.01
75357;HTU21D;63946;51.986;5.930;2024-03-17T17:48:58;12.88;64.32
75357;HTU21D;63946;51.986;5.930;2024-03-17T17:51:26;12.85;64.65
75357;HTU21D;63946;51.986;5.930;2024-03-17T17:53:55;12.80;64.78
75357;HTU21D;63946;51.986;5.930;2024-03-17T17:56:24;12.79;64.94
75357;HTU21D;63946;51.986;5.930;2024-03-17T17:58:53;12.77;65.08
75357;HTU21D;63946;51.986;5.930;2024-03-17T18:01:21;12.76;65.26
75357;HTU21D;63946;51.986;5.930;2024-03-17T18:03:50;12.75;65.43
75357;HTU21D;63946;51.986;5.930;2024-03-17T18:06:20;12.73;65.58
75357;HTU21D;63946;51.986;5.930;2024-03-17T18:08:48;12.70;65.78
75357;HTU21D;63946;51.986;5.930;2024-03-17T18:11:21;12.65;65.92
75357;HTU21D;63946;51.986;5.930;2024-03-17T18:13:52;12.63;65.98
75357;HTU21D;63946;51.986;5.930;2024-03-17T18:16:21;12.61;66.05
75357;HTU21D;63946;51.986;5.930;2024-03-17T18:18:49;12.60;66.16
75357;HTU21D;63946;51.986;5.930;2024-03-17T18:21:18;12.60;66.26
75357;HTU21D;63946;51.986;5.930;2024-03-17T18:23:47;12.60;66.29
75357;HTU21D;63946;51.986;5.930;2024-03-17T18:26:18;12.59;66.44
75357;HTU21D;63946;51.986;5.930;2024-03-17T18:28:46;12.56;66.62
75357;HTU21D;63946;51.986;5.930;2024-03-17T18:31:15;12.51;66.81
75357;HTU21D;63946;51.986;5.930;2024-03-17T18:33:44;12.51;66.98
75357;HTU21D;63946;51.986;5.930;2024-03-17T18:36:16;12.48;67.09
75357;HTU21D;63946;51.986;5.930;2024-03-17T18:38:45;12.48;67.16
75357;HTU21D;63946;51.986;5.930;2024-03-17T18:41:14;12.47;67.28
75357;HTU21D;63946;51.986;5.930;2024-03-17T18:43:43;12.47;67.36
75357;HTU21D;63946;51.986;5.930;2024-03-17T18:46:17;12.43;67.66
75357;HTU21D;63946;51.986;5.930;2024-03-17T18:48:49;12.41;67.88
75357;HTU21D;63946;51.986;5.930;2024-03-17T18:51:19;12.42;67.91
75357;HTU21D;63946;51.986;5.930;2024-03-17T18:53:48;12.37;67.97
75357;HTU21D;63946;51.986;5.930;2024-03-17T18:56:20;12.37;68.10
75357;HTU21D;63946;51.986;5.930;2024-03-17T18:58:50;12.32;68.28
75357;HTU21D;63946;51.986;5.930;2024-03-17T19:01:18;12.28;68.49
75357;HTU21D;63946;51.986;5.930;2024-03-17T19:03:48;12.26;68.62
75357;HTU21D;63946;51.986;5.930;2024-03-17T19:06:17;12.18;68.79
75357;HTU21D;63946;51.986;5.930;2024-03-17T19:08:47;12.14;69.04
75357;HTU21D;63946;51.986;5.930;2024-03-17T19:11:16;12.13;69.29
75357;HTU21D;63946;51.986;5.930;2024-03-17T19:13:46;12.13;69.39
75357;HTU21D;63946;51.986;5.930;2024-03-17T19:16:14;12.11;69.54
75357;HTU21D;63946;51.986;5.930;2024-03-17T19:18:43;12.08;69.60
75357;HTU21D;63946;51.986;5.930;2024-03-17T19:21:15;12.06;69.72
75357;HTU21D;63946;51.986;5.930;2024-03-17T19:23:44;12.04;69.90
75357;HTU21D;63946;51.986;5.930;2024-03-17T19:26:15;12.03;70.08
75357;HTU21D;63946;51.986;5.930;2024-03-17T19:28:47;12.02;70.19
75357;HTU21D;63946;51.986;5.930;2024-03-17T19:31:16;12.00;70.37
75357;HTU21D;63946;51.986;5.930;2024-03-17T19:33:45;11.99;70.52
75357;HTU21D;63946;51.986;5.930;2024-03-17T19:36:14;11.93;70.71
75357;HTU21D;63946;51.986;5.930;2024-03-17T19:38:43;11.89;70.84
75357;HTU21D;63946;51.986;5.930;2024-03-17T19:41:16;11.89;70.98
75357;HTU21D;63946;51.986;5.930;2024-03-17T19:43:44;11.87;71.03
75357;HTU21D;63946;51.986;5.930;2024-03-17T19:46:15;11.86;71.10
75357;HTU21D;63946;51.986;5.930;2024-03-17T19:48:55;11.85;71.19
75357;HTU21D;63946;51.986;5.930;2024-03-17T19:51:24;11.85;71.21
75357;HTU21D;63946;51.986;5.930;2024-03-17T19:53:54;11.84;71.23
75357;HTU21D;63946;51.986;5.930;2024-03-17T19:56:23;11.82;71.35
75357;HTU21D;63946;51.986;5.930;2024-03-17T19:58:52;11.77;71.55
75357;HTU21D;63946;51.986;5.930;2024-03-17T20:01:22;11.77;71.64
75357;HTU21D;63946;51.986;5.930;2024-03-17T20:03:52;11.76;71.65
75357;HTU21D;63946;51.986;5.930;2024-03-17T20:06:23;11.76;71.59
75357;HTU21D;63946;51.986;5.930;2024-03-17T20:08:54;11.75;71.60
75357;HTU21D;63946;51.986;5.930;2024-03-17T20:11:23;11.72;71.65
75357;HTU21D;63946;51.986;5.930;2024-03-17T20:13:53;11.71;71.63
75357;HTU21D;63946;51.986;5.930;2024-03-17T20:16:23;11.73;71.61
75357;HTU21D;63946;51.986;5.930;2024-03-17T20:18:57;11.72;71.59
75357;HTU21D;63946;51.986;5.930;2024-03-17T20:21:26;11.70;71.62
75357;HTU21D;63946;51.986;5.930;2024-03-17T20:23:54;11.68;71.67
75357;HTU21D;63946;51.986;5.930;2024-03-17T20:26:24;11.67;71.64
75357;HTU21D;63946;51.986;5.930;2024-03-17T20:28:56;11.68;71.69
75357;HTU21D;63946;51.986;5.930;2024-03-17T20:31:28;11.68;71.71
75357;HTU21D;63946;51.986;5.930;2024-03-17T20:33:56;11.68;71.68
75357;HTU21D;63946;51.986;5.930;2024-03-17T20:36:25;11.67;71.74
75357;HTU21D;63946;51.986;5.930;2024-03-17T20:38:54;11.67;71.71
75357;HTU21D;63946;51.986;5.930;2024-03-17T20:41:23;11.67;71.70
75357;HTU21D;63946;51.986;5.930;2024-03-17T20:43:51;11.66;71.72
75357;HTU21D;63946;51.986;5.930;2024-03-17T20:46:20;11.63;71.68
75357;HTU21D;63946;51.986;5.930;2024-03-17T20:48:49;11.62;71.77
75357;HTU21D;63946;51.986;5.930;2024-03-17T20:51:19;11.63;71.63
75357;HTU21D;63946;51.986;5.930;2024-03-17T20:53:48;11.61;71.62
75357;HTU21D;63946;51.986;5.930;2024-03-17T20:56:17;11.61;71.60
75357;HTU21D;63946;51.986;5.930;2024-03-17T20:58:46;11.62;71.60
75357;HTU21D;63946;51.986;5.930;2024-03-17T21:01:16;11.60;71.62
75357;HTU21D;63946;51.986;5.930;2024-03-17T21:03:44;11.61;71.54
75357;HTU21D;63946;51.986;5.930;2024-03-17T21:06:13;11.61;71.51
75357;HTU21D;63946;51.986;5.930;2024-03-17T21:08:42;11.62;71.58
75357;HTU21D;63946;51.986;5.930;2024-03-17T21:11:11;11.61;71.68
75357;HTU21D;63946;51.986;5.930;2024-03-17T21:13:41;11.61;71.71
75357;HTU21D;63946;51.986;5.930;2024-03-17T21:16:10;11.61;71.67
75357;HTU21D;63946;51.986;5.930;2024-03-17T21:18:39;11.64;71.62
75357;HTU21D;63946;51.986;5.930;2024-03-17T21:21:08;11.64;71.50
75357;HTU21D;63946;51.986;5.930;2024-03-17T21:23:37;11.64;71.38
75357;HTU21D;63946;51.986;5.930;2024-03-17T21:26:09;11.66;71.33
75357;HTU21D;63946;51.986;5.930;2024-03-17T21:28:37;11.66;71.25
75357;HTU21D;63946;51.986;5.930;2024-03-17T21:31:06;11.66;71.23
75357;HTU21D;63946;51.986;5.930;2024-03-17T21:33:35;11.67;71.20
75357;HTU21D;63946;51.986;5.930;2024-03-17T21:36:05;11.64;71.18
75357;HTU21D;63946;51.986;5.930;2024-03-17T21:38:34;11.63;71.23
75357;HTU21D;63946;51.986;5.930;2024-03-17T21:41:08;11.64;71.22
75357;HTU21D;63946;51.986;5.930;2024-03-17T21:43:43;11.63;71.22
75357;HTU21D;63946;51.986;5.930;2024-03-17T21:46:13;11.66;71.19
75357;HTU21D;63946;51.986;5.930;2024-03-17T21:48:41;11.66;71.20
75357;HTU21D;63946;51.986;5.930;2024-03-17T21:51:13;11.67;71.24
75357;HTU21D;63946;51.986;5.930;2024-03-17T21:53:50;11.67;71.37
75357;HTU21D;63946;51.986;5.930;2024-03-17T21:56:19;11.64;71.42
75357;HTU21D;63946;51.986;5.930;2024-03-17T21:58:48;11.62;71.60
75357;HTU21D;63946;51.986;5.930;2024-03-17T22:01:17;11.63;71.61
75357;HTU21D;63946;51.986;5.930;2024-03-17T22:03:46;11.62;71.67
75357;HTU21D;63946;51.986;5.930;2024-03-17T22:06:15;11.62;71.70
75357;HTU21D;63946;51.986;5.930;2024-03-17T22:08:43;11.62;71.81
75357;HTU21D;63946;51.986;5.930;2024-03-17T22:11:12;11.59;71.96
75357;HTU21D;63946;51.986;5.930;2024-03-17T22:13:41;11.58;72.19
75357;HTU21D;63946;51.986;5.930;2024-03-17T22:16:10;11.57;72.28
75357;HTU21D;63946;51.986;5.930;2024-03-17T22:18:40;11.53;72.50
75357;HTU21D;63946;51.986;5.930;2024-03-17T22:21:10;11.51;72.65
75357;HTU21D;63946;51.986;5.930;2024-03-17T22:23:41;11.48;72.81
75357;HTU21D;63946;51.986;5.930;2024-03-17T22:26:12;11.40;73.21
